createdAt,value
2018-04-23T00:00:55.812Z,0.00
2018-04-23T00:01:55.696Z,0.00
2018-04-23T00:02:55.608Z,0.00
2018-04-23T00:03:55.520Z,0.00
2018-04-23T00:04:55.428Z,0.00
2018-04-23T00:05:55.374Z,0.00
2018-04-23T00:06:55.269Z,0.00
2018-04-23T00:07:55.165Z,0.00
2018-04-23T00:08:55.076Z,0.00
2018-04-23T00:09:54.989Z,0.00
2018-04-23T00:10:54.933Z,0.00
2018-04-23T00:11:54.810Z,0.00
2018-04-23T00:12:54.719Z,0.00
2018-04-23T00:13:54.633Z,0.00
2018-04-23T00:14:54.546Z,0.00
2018-04-23T00:15:54.485Z,0.00
2018-04-23T00:16:54.366Z,0.00
2018-04-23T00:17:54.279Z,0.00
2018-04-23T00:18:54.191Z,0.00
2018-04-23T00:19:54.099Z,0.00
2018-04-23T00:20:54.040Z,0.00
2018-04-23T00:21:53.922Z,0.00
2018-04-23T00:22:53.834Z,0.00
2018-04-23T00:23:53.743Z,0.00
2018-04-23T00:24:54.489Z,0.00
2018-04-23T00:25:53.595Z,0.00
2018-04-23T00:26:53.478Z,0.00
2018-04-23T00:27:53.392Z,0.00
2018-04-23T00:28:53.299Z,0.00
2018-04-23T00:29:53.209Z,0.00
2018-04-23T00:30:53.151Z,0.00
2018-04-23T00:31:53.035Z,0.00
2018-04-23T00:32:52.949Z,0.00
2018-04-23T00:33:52.862Z,0.00
2018-04-23T00:34:52.767Z,0.00
2018-04-23T00:35:52.705Z,0.00
2018-04-23T00:36:52.588Z,0.00
2018-04-23T00:37:52.499Z,0.00
2018-04-23T00:38:52.409Z,0.00
2018-04-23T00:39:52.323Z,0.00
2018-04-23T00:40:52.264Z,0.00
2018-04-23T00:41:52.144Z,0.00
2018-04-23T00:42:53.055Z,0.00
2018-04-23T00:43:51.968Z,0.00
2018-04-23T00:44:51.879Z,0.00
2018-04-23T00:45:51.789Z,0.00
2018-04-23T00:46:51.821Z,0.00
2018-04-23T00:47:51.612Z,0.00
2018-04-23T00:48:51.533Z,0.00
2018-04-23T00:49:51.434Z,0.00
2018-04-23T00:50:51.347Z,0.00
2018-04-23T00:51:51.290Z,0.00
2018-04-23T00:52:51.166Z,0.00
2018-04-23T00:53:51.076Z,0.00
2018-04-23T00:54:50.990Z,0.00
2018-04-23T00:55:50.901Z,0.00
2018-04-23T00:56:50.839Z,0.00
2018-04-23T00:57:50.724Z,0.00
2018-04-23T00:58:50.635Z,0.00
2018-04-23T00:59:50.549Z,0.00
2018-04-23T01:00:50.457Z,0.00
2018-04-23T01:01:50.396Z,0.00
2018-04-23T01:02:50.278Z,0.00
2018-04-23T01:03:50.190Z,0.00
2018-04-23T01:04:50.102Z,0.00
2018-04-23T01:05:50.013Z,0.00
2018-04-23T01:06:49.950Z,0.00
2018-04-23T01:07:49.833Z,0.00
2018-04-23T01:08:49.748Z,0.00
2018-04-23T01:09:49.655Z,0.00
2018-04-23T01:10:49.566Z,0.00
2018-04-23T01:11:49.508Z,0.00
2018-04-23T01:12:49.390Z,0.00
2018-04-23T01:13:49.297Z,0.00
2018-04-23T01:14:49.304Z,0.00
2018-04-23T01:15:49.123Z,0.00
2018-04-23T01:16:49.062Z,0.00
2018-04-23T01:17:48.942Z,0.00
2018-04-23T01:18:48.857Z,0.00
2018-04-23T01:19:48.765Z,0.00
2018-04-23T01:20:48.675Z,0.00
2018-04-23T01:21:48.719Z,0.00
2018-04-23T01:22:48.500Z,0.00
2018-04-23T01:23:48.406Z,0.00
2018-04-23T01:24:48.319Z,0.00
2018-04-23T01:25:48.232Z,0.00
2018-04-23T01:26:48.173Z,0.00
2018-04-23T01:27:48.056Z,0.00
2018-04-23T01:28:48.057Z,0.00
2018-04-23T01:29:47.871Z,0.00
2018-04-23T01:30:47.781Z,0.00
2018-04-23T01:31:47.722Z,0.00
2018-04-23T01:32:47.604Z,0.00
2018-04-23T01:33:47.516Z,0.00
2018-04-23T01:34:47.428Z,0.00
2018-04-23T01:35:47.433Z,0.00
2018-04-23T01:36:47.279Z,0.00
2018-04-23T01:37:47.158Z,0.00
2018-04-23T01:38:47.075Z,0.00
2018-04-23T01:39:46.986Z,0.00
2018-04-23T01:40:46.890Z,0.00
2018-04-23T01:41:46.855Z,0.00
2018-04-23T01:42:46.804Z,0.00
2018-04-23T01:43:46.623Z,0.00
2018-04-23T01:44:46.536Z,0.00
2018-04-23T01:45:46.446Z,0.00
2018-04-23T01:46:46.384Z,0.00
2018-04-23T01:47:46.267Z,0.00
2018-04-23T01:48:46.177Z,0.00
2018-04-23T01:49:46.179Z,0.00
2018-04-23T01:50:46.002Z,0.00
2018-04-23T01:51:45.912Z,0.00
2018-04-23T01:52:45.853Z,0.00
2018-04-23T01:53:45.734Z,0.00
2018-04-23T01:54:45.643Z,0.00
2018-04-23T01:55:45.555Z,0.00
2018-04-23T01:56:45.557Z,0.00
2018-04-23T01:57:45.409Z,0.00
2018-04-23T01:58:45.286Z,0.00
2018-04-23T01:59:45.196Z,0.00
2018-04-23T02:00:45.105Z,0.00
2018-04-23T02:01:45.019Z,0.00
2018-04-23T02:02:44.959Z,0.00
2018-04-23T02:03:44.953Z,0.00
2018-04-23T02:04:44.750Z,0.00
2018-04-23T02:05:44.662Z,0.00
2018-04-23T02:06:44.575Z,0.00
2018-04-23T02:07:44.511Z,0.00
2018-04-23T02:08:44.393Z,0.00
2018-04-23T02:09:44.305Z,0.00
2018-04-23T02:10:44.309Z,0.00
2018-04-23T02:11:44.128Z,0.00
2018-04-23T02:12:44.067Z,0.00
2018-04-23T02:13:43.948Z,0.00
2018-04-23T02:14:43.859Z,0.00
2018-04-23T02:15:43.773Z,0.00
2018-04-23T02:16:43.683Z,0.00
2018-04-23T02:17:43.717Z,0.00
2018-04-23T02:18:43.504Z,0.00
2018-04-23T02:19:43.420Z,0.00
2018-04-23T02:20:43.328Z,0.00
2018-04-23T02:21:43.237Z,0.00
2018-04-23T02:22:43.181Z,0.00
2018-04-23T02:23:43.063Z,0.00
2018-04-23T02:24:43.077Z,0.00
2018-04-23T02:25:42.881Z,0.00
2018-04-23T02:26:43.516Z,0.00
2018-04-23T02:27:43.521Z,0.00
2018-04-23T02:28:42.616Z,0.00
2018-04-23T02:29:42.524Z,0.00
2018-04-23T02:30:42.443Z,0.00
2018-04-23T02:31:42.440Z,0.00
2018-04-23T02:32:42.290Z,0.00
2018-04-23T02:33:42.173Z,0.00
2018-04-23T02:34:42.082Z,0.00
2018-04-23T02:35:42.063Z,0.00
2018-04-23T02:36:41.905Z,0.00
2018-04-23T02:37:41.853Z,0.00
2018-04-23T02:38:41.723Z,0.00
2018-04-23T02:39:41.636Z,0.00
2018-04-23T02:40:41.544Z,0.00
2018-04-23T02:41:41.461Z,0.00
2018-04-23T02:42:41.404Z,0.00
2018-04-23T02:43:41.278Z,0.00
2018-04-23T02:44:41.189Z,0.00
2018-04-23T02:45:41.100Z,0.00
2018-04-23T02:46:41.010Z,0.00
2018-04-23T02:47:40.950Z,0.00
2018-04-23T02:48:40.835Z,0.00
2018-04-23T02:49:40.744Z,0.00
2018-04-23T02:50:40.655Z,0.00
2018-04-23T02:51:40.564Z,0.00
2018-04-23T02:52:40.501Z,0.00
2018-04-23T02:53:40.384Z,0.00
2018-04-23T02:54:40.294Z,0.00
2018-04-23T02:55:40.207Z,0.00
2018-04-23T02:56:40.120Z,0.00
2018-04-23T02:57:40.534Z,0.00
2018-04-23T02:58:39.945Z,0.00
2018-04-23T02:59:39.890Z,0.00
2018-04-23T03:00:39.758Z,0.00
2018-04-23T03:01:39.671Z,0.00
2018-04-23T03:02:39.622Z,0.00
2018-04-23T03:03:39.491Z,0.00
2018-04-23T03:04:39.400Z,0.00
2018-04-23T03:05:39.312Z,0.00
2018-04-23T03:06:39.225Z,0.00
2018-04-23T03:07:39.155Z,0.00
2018-04-23T03:08:39.072Z,0.00
2018-04-23T03:09:38.954Z,0.00
2018-04-23T03:10:38.870Z,0.00
2018-04-23T03:11:38.780Z,0.00
2018-04-23T03:12:38.689Z,0.00
2018-04-23T03:13:38.631Z,0.00
2018-04-23T03:14:38.510Z,0.00
2018-04-23T03:15:38.424Z,0.00
2018-04-23T03:16:38.332Z,0.00
2018-04-23T03:17:38.241Z,0.00
2018-04-23T03:18:38.183Z,0.00
2018-04-23T03:19:38.061Z,0.00
2018-04-23T03:20:37.970Z,0.00
2018-04-23T03:21:37.880Z,0.00
2018-04-23T03:22:37.794Z,0.00
2018-04-23T03:23:37.736Z,0.00
2018-04-23T03:24:37.620Z,0.00
2018-04-23T03:25:37.525Z,0.00
2018-04-23T03:26:37.439Z,0.00
2018-04-23T03:27:37.346Z,0.00
2018-04-23T03:28:37.299Z,0.00
2018-04-23T03:29:37.168Z,0.00
2018-04-23T03:30:37.384Z,4.00
2018-04-23T03:31:36.993Z,4.00
2018-04-23T03:32:36.900Z,4.00
2018-04-23T03:33:36.843Z,4.00
2018-04-23T03:34:36.721Z,4.00
2018-04-23T03:35:36.633Z,8.00
2018-04-23T03:36:36.541Z,4.00
2018-04-23T03:37:36.454Z,8.00
2018-04-23T03:38:36.393Z,8.00
2018-04-23T03:39:36.276Z,8.00
2018-04-23T03:40:36.185Z,12.00
2018-04-23T03:41:36.097Z,12.00
2018-04-23T03:42:36.006Z,16.00
2018-04-23T03:43:35.945Z,20.00
2018-04-23T03:44:35.828Z,24.00
2018-04-23T03:45:35.736Z,24.00
2018-04-23T03:46:35.650Z,28.00
2018-04-23T03:47:35.560Z,36.00
2018-04-23T03:48:35.502Z,40.00
2018-04-23T03:49:35.381Z,48.00
2018-04-23T03:50:35.309Z,52.00
2018-04-23T03:51:35.205Z,64.00
2018-04-23T03:52:35.113Z,68.00
2018-04-23T03:53:35.055Z,76.00
2018-04-23T03:54:34.934Z,88.00
2018-04-23T03:55:34.846Z,92.00
2018-04-23T03:56:34.754Z,108.00
2018-04-23T03:57:34.674Z,116.00
2018-04-23T03:58:34.609Z,128.00
2018-04-23T03:59:34.488Z,144.00
2018-04-23T04:00:34.400Z,152.00
2018-04-23T04:01:34.311Z,168.00
2018-04-23T04:02:34.229Z,184.00
2018-04-23T04:03:34.160Z,200.00
2018-04-23T04:04:34.047Z,220.00
2018-04-23T04:05:33.952Z,244.00
2018-04-23T04:06:33.865Z,264.00
2018-04-23T04:07:33.777Z,288.00
2018-04-23T04:08:33.718Z,316.00
2018-04-23T04:09:33.598Z,344.00
2018-04-23T04:10:33.506Z,376.00
2018-04-23T04:11:33.420Z,412.00
2018-04-23T04:12:33.329Z,448.00
2018-04-23T04:13:33.271Z,484.00
2018-04-23T04:14:33.150Z,524.00
2018-04-23T04:15:33.063Z,564.00
2018-04-23T04:16:33.063Z,608.00
2018-04-23T04:17:32.883Z,652.00
2018-04-23T04:18:32.825Z,700.00
2018-04-23T04:19:32.705Z,748.00
2018-04-23T04:20:32.612Z,800.00
2018-04-23T04:21:32.522Z,852.00
2018-04-23T04:22:33.045Z,904.00
2018-04-23T04:23:32.468Z,960.00
2018-04-23T04:24:32.257Z,1012.00
2018-04-23T04:25:32.167Z,1068.00
2018-04-23T04:26:32.095Z,1128.00
2018-04-23T04:27:31.992Z,1196.00
2018-04-23T04:28:31.899Z,1244.00
2018-04-23T04:29:31.838Z,1292.00
2018-04-23T04:30:31.819Z,1328.00
2018-04-23T04:31:31.645Z,1360.00
2018-04-23T04:32:31.540Z,1388.00
2018-04-23T04:33:31.453Z,1428.00
2018-04-23T04:34:31.397Z,1484.00
2018-04-23T04:35:31.344Z,1548.00
2018-04-23T04:36:31.186Z,1624.00
2018-04-23T04:37:31.186Z,1704.00
2018-04-23T04:38:31.009Z,1784.00
2018-04-23T04:39:30.943Z,1852.00
2018-04-23T04:40:30.827Z,1920.00
2018-04-23T04:41:30.737Z,1988.00
2018-04-23T04:42:30.646Z,2048.00
2018-04-23T04:43:30.560Z,2116.00
2018-04-23T04:44:30.591Z,2176.00
2018-04-23T04:45:30.381Z,2240.00
2018-04-23T04:46:30.288Z,2296.00
2018-04-23T04:47:30.199Z,2344.00
2018-04-23T04:48:30.110Z,2404.00
2018-04-23T04:49:30.049Z,2468.00
2018-04-23T04:50:29.931Z,2540.00
2018-04-23T04:51:29.946Z,2608.00
2018-04-23T04:52:29.753Z,2676.00
2018-04-23T04:53:29.661Z,2748.00
2018-04-23T04:54:29.605Z,2812.00
2018-04-23T04:55:29.486Z,2884.00
2018-04-23T04:56:29.397Z,2952.00
2018-04-23T04:57:29.306Z,3004.00
2018-04-23T04:58:29.316Z,3032.00
2018-04-23T04:59:29.157Z,3044.00
2018-04-23T05:00:29.040Z,3048.00
2018-04-23T05:01:28.953Z,3080.00
2018-04-23T05:02:28.864Z,3128.00
2018-04-23T05:03:28.784Z,3184.00
2018-04-23T05:04:28.713Z,3240.00
2018-04-23T05:05:30.555Z,3320.00
2018-04-23T05:06:28.508Z,3416.00
2018-04-23T05:07:28.427Z,3500.00
2018-04-23T05:08:28.327Z,3572.00
2018-04-23T05:09:28.271Z,3648.00
2018-04-23T05:10:28.153Z,3748.00
2018-04-23T05:11:28.061Z,3864.00
2018-04-23T05:12:28.072Z,3968.00
2018-04-23T05:13:27.885Z,4056.00
2018-04-23T05:14:27.829Z,4068.00
2018-04-23T05:15:27.711Z,4048.00
2018-04-23T05:16:27.625Z,4032.00
2018-04-23T05:17:27.530Z,4012.00
2018-04-23T05:18:27.445Z,4036.00
2018-04-23T05:19:27.476Z,4104.00
2018-04-23T05:20:27.265Z,4196.00
2018-04-23T05:21:27.178Z,4220.00
2018-04-23T05:22:27.087Z,4204.00
2018-04-23T05:23:27.001Z,4076.00
2018-04-23T05:24:26.938Z,3956.00
2018-04-23T05:25:26.933Z,3888.00
2018-04-23T05:26:26.735Z,3912.00
2018-04-23T05:27:26.649Z,3944.00
2018-04-23T05:28:26.559Z,3980.00
2018-04-23T05:29:26.475Z,4004.00
2018-04-23T05:30:26.412Z,3968.00
2018-04-23T05:31:26.301Z,3924.00
2018-04-23T05:32:26.207Z,3912.00
2018-04-23T05:33:26.215Z,4028.00
2018-04-23T05:34:26.033Z,4272.00
2018-04-23T05:35:25.974Z,4484.00
2018-04-23T05:36:25.851Z,4640.00
2018-04-23T05:37:25.766Z,4816.00
2018-04-23T05:38:25.679Z,4996.00
2018-04-23T05:39:25.607Z,5176.00
2018-04-23T05:40:25.530Z,5404.00
2018-04-23T05:41:25.414Z,5720.00
2018-04-23T05:42:25.327Z,6096.00
2018-04-23T05:43:25.242Z,6388.00
2018-04-23T05:44:25.152Z,6544.00
2018-04-23T05:45:25.092Z,6420.00
2018-04-23T05:46:24.975Z,6176.00
2018-04-23T05:47:24.887Z,5812.00
2018-04-23T05:48:24.799Z,5480.00
2018-04-23T05:49:24.713Z,5304.00
2018-04-23T05:50:24.658Z,5176.00
2018-04-23T05:51:24.535Z,4980.00
2018-04-23T05:52:24.446Z,4904.00
2018-04-23T05:53:24.359Z,5048.00
2018-04-23T05:54:24.275Z,5368.00
2018-04-23T05:55:24.215Z,5688.00
2018-04-23T05:56:24.097Z,5952.00
2018-04-23T05:57:24.009Z,6216.00
2018-04-23T05:58:23.925Z,6400.00
2018-04-23T05:59:23.839Z,6376.00
2018-04-23T06:00:23.777Z,6360.00
2018-04-23T06:01:23.656Z,6296.00
2018-04-23T06:02:23.570Z,6104.00
2018-04-23T06:03:23.483Z,5928.00
2018-04-23T06:04:23.395Z,5848.00
2018-04-23T06:05:23.341Z,6012.00
2018-04-23T06:06:23.220Z,6168.00
2018-04-23T06:07:23.133Z,6112.00
2018-04-23T06:08:23.045Z,5824.00
2018-04-23T06:09:22.956Z,5480.00
2018-04-23T06:10:22.897Z,5168.00
2018-04-23T06:11:22.783Z,4960.00
2018-04-23T06:12:22.695Z,4872.00
2018-04-23T06:13:22.609Z,4896.00
2018-04-23T06:14:22.563Z,4984.00
2018-04-23T06:15:22.462Z,5016.00
2018-04-23T06:16:22.346Z,4948.00
2018-04-23T06:17:22.261Z,4956.00
2018-04-23T06:18:22.173Z,5152.00
2018-04-23T06:19:22.083Z,5320.00
2018-04-23T06:20:22.032Z,5508.00
2018-04-23T06:21:21.911Z,5860.00
2018-04-23T06:22:21.824Z,6148.00
2018-04-23T06:23:21.739Z,6464.00
2018-04-23T06:24:21.653Z,6780.00
2018-04-23T06:25:21.592Z,6980.00
2018-04-23T06:26:21.476Z,7128.00
2018-04-23T06:27:21.392Z,7352.00
2018-04-23T06:28:21.299Z,7496.00
2018-04-23T06:29:21.224Z,7976.00
2018-04-23T06:30:21.127Z,8476.00
2018-04-23T06:31:21.068Z,9040.00
2018-04-23T06:32:20.955Z,9388.00
2018-04-23T06:33:20.869Z,9768.00
2018-04-23T06:34:20.788Z,9588.00
2018-04-23T06:35:20.699Z,9176.00
2018-04-23T06:36:20.637Z,9304.00
2018-04-23T06:37:20.516Z,9956.00
2018-04-23T06:38:20.432Z,11036.00
2018-04-23T06:39:20.350Z,12092.00
2018-04-23T06:40:20.278Z,12900.00
2018-04-23T06:41:20.200Z,14268.00
2018-04-23T06:42:20.182Z,15540.00
2018-04-23T06:43:20.000Z,24000.00
2018-04-23T06:44:19.910Z,20384.00
2018-04-23T06:45:19.826Z,17984.00
2018-04-23T06:46:19.835Z,28608.00
2018-04-23T06:47:19.653Z,18720.00
2018-04-23T06:48:19.565Z,14320.00
2018-04-23T06:49:19.571Z,14276.00
2018-04-23T06:50:19.392Z,14120.00
2018-04-23T06:51:19.338Z,14516.00
2018-04-23T06:52:19.219Z,15388.00
2018-04-23T06:53:19.132Z,16228.00
2018-04-23T06:54:19.047Z,18784.00
2018-04-23T06:55:18.964Z,20352.00
2018-04-23T06:56:18.998Z,19040.00
2018-04-23T06:57:18.788Z,20896.00
2018-04-23T06:58:18.704Z,22080.00
2018-04-23T06:59:18.616Z,17984.00
2018-04-23T07:00:18.531Z,17632.00
2018-04-23T07:01:18.475Z,16284.00
2018-04-23T07:02:18.357Z,15204.00
2018-04-23T07:03:18.369Z,12768.00
2018-04-23T07:04:18.193Z,15724.00
2018-04-23T07:05:18.101Z,16292.00
2018-04-23T07:06:18.044Z,13992.00
2018-04-23T07:07:17.932Z,18080.00
2018-04-23T07:08:17.844Z,17216.00
2018-04-23T07:09:17.760Z,18848.00
2018-04-23T07:10:17.766Z,16548.00
2018-04-23T07:11:17.620Z,16076.00
2018-04-23T07:12:17.501Z,16260.00
2018-04-23T07:13:17.446Z,17984.00
2018-04-23T07:14:17.330Z,24896.00
2018-04-23T07:15:17.247Z,31712.00
2018-04-23T07:16:17.191Z,30560.00
2018-04-23T07:17:17.168Z,29824.00
2018-04-23T07:18:16.993Z,30272.00
2018-04-23T07:19:16.902Z,32064.00
2018-04-23T07:20:16.818Z,34080.00
2018-04-23T07:21:16.764Z,33920.00
2018-04-23T07:22:16.650Z,34336.00
2018-04-23T07:23:16.579Z,33632.00
2018-04-23T07:24:16.590Z,35392.00
2018-04-23T07:25:16.393Z,36256.00
2018-04-23T07:26:16.340Z,37728.00
2018-04-23T07:27:16.230Z,31776.00
2018-04-23T07:28:16.139Z,34720.00
2018-04-23T07:29:16.093Z,26464.00
2018-04-23T07:30:15.973Z,28608.00
2018-04-23T07:31:16.011Z,38528.00
2018-04-23T07:32:15.811Z,37248.00
2018-04-23T07:33:15.728Z,36576.00
2018-04-23T07:34:15.642Z,37696.00
2018-04-23T07:35:15.556Z,37344.00
2018-04-23T07:36:15.505Z,37120.00
2018-04-23T07:37:15.486Z,36928.00
2018-04-23T07:38:15.307Z,37440.00
2018-04-23T07:39:15.225Z,32192.00
2018-04-23T07:40:15.144Z,35136.00
2018-04-23T07:41:15.062Z,34464.00
2018-04-23T07:42:15.009Z,32800.00
2018-04-23T07:43:14.898Z,28000.00
2018-04-23T07:44:14.813Z,34912.00
2018-04-23T07:45:14.830Z,36160.00
2018-04-23T07:46:14.657Z,39936.00
2018-04-23T07:47:14.602Z,37984.00
2018-04-23T07:48:14.493Z,39584.00
2018-04-23T07:49:14.410Z,51072.00
2018-04-23T07:50:14.329Z,57728.00
2018-04-23T07:51:14.248Z,42912.00
2018-04-23T07:52:14.289Z,44352.00
2018-04-23T07:53:14.086Z,46176.00
2018-04-23T07:54:14.034Z,49408.00
2018-04-23T07:55:13.931Z,52192.00
2018-04-23T07:56:13.845Z,53344.00
2018-04-23T07:57:13.795Z,51936.00
2018-04-23T07:58:13.795Z,51104.00
2018-04-23T07:59:13.604Z,49888.00
2018-04-23T08:00:13.524Z,48032.00
2018-04-23T08:01:13.444Z,49376.00
2018-04-23T08:02:13.393Z,48704.00
2018-04-23T08:03:13.285Z,48064.00
2018-04-23T08:04:13.206Z,49664.00
2018-04-23T08:05:13.130Z,51040.00
2018-04-23T08:06:13.048Z,53312.00
2018-04-23T08:07:12.999Z,47552.00
2018-04-23T08:08:12.885Z,48192.00
2018-04-23T08:09:12.809Z,46912.00
2018-04-23T08:10:12.729Z,45024.00
2018-04-23T08:11:12.647Z,47616.00
2018-04-23T08:12:12.630Z,44704.00
2018-04-23T08:13:12.489Z,42336.00
2018-04-23T08:14:12.410Z,43904.00
2018-04-23T08:15:12.332Z,44960.00
2018-04-23T08:16:12.253Z,46272.00
2018-04-23T08:17:12.201Z,46496.00
2018-04-23T08:18:12.091Z,50304.00
2018-04-23T08:19:12.013Z,53408.00
2018-04-23T08:20:11.935Z,54880.00
2018-04-23T08:21:11.858Z,55040.00
2018-04-23T08:22:11.809Z,53536.00
2018-04-23T08:23:11.696Z,49632.00
2018-04-23T08:24:11.617Z,47296.00
2018-04-23T08:25:11.540Z,51552.00
2018-04-23T08:26:11.460Z,52000.00
2018-04-23T08:27:11.413Z,48960.00
2018-04-23T08:28:11.302Z,51232.00
2018-04-23T08:29:11.224Z,49472.00
2018-04-23T08:30:11.146Z,42816.00
2018-04-23T08:31:11.067Z,48416.00
2018-04-23T08:32:11.017Z,37408.00
2018-04-23T08:33:10.922Z,53120.00
2018-04-23T08:34:10.834Z,56224.00
2018-04-23T08:35:10.750Z,53504.00
2018-04-23T08:36:10.671Z,56736.00
2018-04-23T08:37:10.622Z,50624.00
2018-04-23T08:38:10.517Z,51424.00
2018-04-23T08:39:10.436Z,50560.00
2018-04-23T08:40:10.363Z,48416.00
2018-04-23T08:41:10.280Z,46080.00
2018-04-23T08:42:10.234Z,45600.00
2018-04-23T08:43:10.127Z,57536.00
2018-04-23T08:44:10.045Z,58912.00
2018-04-23T08:45:09.967Z,57344.00
2018-04-23T08:46:09.890Z,55456.00
2018-04-23T08:47:09.813Z,59232.00
2018-04-23T08:48:09.804Z,58400.00
2018-04-23T08:49:09.655Z,65728.00
2018-04-23T08:50:09.575Z,67744.00
2018-04-23T08:51:09.501Z,67680.00
2018-04-23T08:52:09.423Z,68992.00
2018-04-23T08:53:09.376Z,66880.00
2018-04-23T08:54:09.267Z,66144.00
2018-04-23T08:55:09.191Z,68352.00
2018-04-23T08:56:09.110Z,64416.00
2018-04-23T08:57:09.057Z,64544.00
2018-04-23T08:58:08.986Z,64384.00
2018-04-23T08:59:08.879Z,61440.00
2018-04-23T09:00:08.800Z,59936.00
2018-04-23T09:01:08.722Z,61312.00
2018-04-23T09:02:08.646Z,64288.00
2018-04-23T09:03:08.596Z,64128.00
2018-04-23T09:04:08.490Z,66240.00
2018-04-23T09:05:08.414Z,72864.00
2018-04-23T09:06:08.338Z,74432.00
2018-04-23T09:07:08.259Z,75424.00
2018-04-23T09:08:08.246Z,76032.00
2018-04-23T09:09:08.104Z,80960.00
2018-04-23T09:10:08.029Z,70400.00
2018-04-23T09:11:07.950Z,67584.00
2018-04-23T09:12:07.874Z,63136.00
2018-04-23T09:13:07.825Z,73088.00
2018-04-23T09:14:07.724Z,73536.00
2018-04-23T09:15:07.644Z,75968.00
2018-04-23T09:16:07.655Z,76896.00
2018-04-23T09:17:07.492Z,76512.00
2018-04-23T09:18:07.445Z,72928.00
2018-04-23T09:19:07.336Z,72448.00
2018-04-23T09:20:07.260Z,73216.00
2018-04-23T09:21:07.180Z,74848.00
2018-04-23T09:22:07.105Z,76224.00
2018-04-23T09:23:07.168Z,68896.00
2018-04-23T09:24:06.953Z,67968.00
2018-04-23T09:25:06.881Z,65216.00
2018-04-23T09:26:06.798Z,69344.00
2018-04-23T09:27:06.722Z,75264.00
2018-04-23T09:28:06.676Z,77120.00
2018-04-23T09:29:06.567Z,71840.00
2018-04-23T09:30:06.591Z,59008.00
2018-04-23T09:31:06.418Z,39584.00
2018-04-23T09:32:06.350Z,73376.00
2018-04-23T09:33:06.292Z,70272.00
2018-04-23T09:34:06.189Z,64096.00
2018-04-23T09:35:06.115Z,63104.00
2018-04-23T09:36:06.036Z,73792.00
2018-04-23T09:37:06.051Z,76864.00
2018-04-23T09:38:05.918Z,73888.00
2018-04-23T09:39:05.807Z,77440.00
2018-04-23T09:40:05.730Z,78144.00
2018-04-23T09:41:05.654Z,78112.00
2018-04-23T09:42:05.581Z,76256.00
2018-04-23T09:43:05.538Z,72480.00
2018-04-23T09:44:05.519Z,73824.00
2018-04-23T09:45:05.349Z,66976.00
2018-04-23T09:46:05.275Z,61728.00
2018-04-23T09:47:05.202Z,53856.00
2018-04-23T09:48:05.157Z,56864.00
2018-04-23T09:49:05.052Z,68000.00
2018-04-23T09:50:05.017Z,78080.00
2018-04-23T09:51:04.998Z,80864.00
2018-04-23T09:52:04.823Z,52416.00
2018-04-23T09:53:04.783Z,52192.00
2018-04-23T09:54:04.672Z,70016.00
2018-04-23T09:55:04.598Z,69632.00
2018-04-23T09:56:04.520Z,65856.00
2018-04-23T09:57:04.447Z,44064.00
2018-04-23T09:58:05.530Z,68224.00
2018-04-23T09:59:04.327Z,70496.00
2018-04-23T10:00:04.224Z,70720.00
2018-04-23T10:01:04.145Z,73504.00
2018-04-23T10:02:04.071Z,59712.00
2018-04-23T10:03:04.026Z,48160.00
2018-04-23T10:04:03.920Z,37824.00
2018-04-23T10:05:03.937Z,30848.00
2018-04-23T10:06:03.772Z,28160.00
2018-04-23T10:07:03.693Z,21952.00
2018-04-23T10:08:03.617Z,16256.00
2018-04-23T10:09:03.575Z,15556.00
2018-04-23T10:10:03.467Z,18656.00
2018-04-23T10:11:03.397Z,20416.00
2018-04-23T10:12:03.419Z,20448.00
2018-04-23T10:13:03.242Z,16544.00
2018-04-23T10:14:03.193Z,12040.00
2018-04-23T10:15:03.087Z,10320.00
2018-04-23T10:16:03.009Z,10920.00
2018-04-23T10:17:02.931Z,11828.00
2018-04-23T10:18:02.857Z,9252.00
2018-04-23T10:19:02.903Z,6292.00
2018-04-23T10:20:02.704Z,4064.00
2018-04-23T10:21:02.676Z,3044.00
2018-04-23T10:22:02.543Z,3128.00
2018-04-23T10:23:02.475Z,3496.00
2018-04-23T10:24:02.423Z,2728.00
2018-04-23T10:25:02.430Z,1808.00
2018-04-23T10:26:02.231Z,1240.00
2018-04-23T10:27:02.151Z,1032.00
2018-04-23T10:28:02.070Z,908.00
2018-04-23T10:29:02.025Z,820.00
2018-04-23T10:30:01.911Z,796.00
2018-04-23T10:31:01.832Z,872.00
2018-04-23T10:32:01.756Z,920.00
2018-04-23T10:33:01.667Z,964.00
2018-04-23T10:34:01.618Z,1136.00
2018-04-23T10:35:01.517Z,1564.00
2018-04-23T10:36:01.425Z,1996.00
2018-04-23T10:37:01.340Z,2260.00
2018-04-23T10:38:01.266Z,2292.00
2018-04-23T10:39:01.209Z,2240.00
2018-04-23T10:40:01.092Z,2292.00
2018-04-23T10:41:01.009Z,2360.00
2018-04-23T10:42:00.924Z,2364.00
2018-04-23T10:43:00.841Z,2260.00
2018-04-23T10:44:00.793Z,2068.00
2018-04-23T10:45:00.673Z,1852.00
2018-04-23T10:46:00.586Z,1664.00
2018-04-23T10:47:00.500Z,1496.00
2018-04-23T10:48:00.421Z,1392.00
2018-04-23T10:49:00.359Z,1444.00
2018-04-23T10:50:00.246Z,1556.00
2018-04-23T10:51:00.162Z,1716.00
2018-04-23T10:52:00.071Z,1868.00
2018-04-23T10:52:59.982Z,1860.00
2018-04-23T10:53:59.929Z,1824.00
2018-04-23T10:54:59.815Z,1764.00
2018-04-23T10:55:59.724Z,1748.00
2018-04-23T10:56:59.639Z,1644.00
2018-04-23T10:57:59.554Z,1588.00
2018-04-23T10:58:59.496Z,1560.00
2018-04-23T10:59:59.376Z,1532.00
2018-04-23T11:00:59.287Z,1464.00
2018-04-23T11:01:59.200Z,1380.00
2018-04-23T11:02:59.116Z,1340.00
2018-04-23T11:03:59.027Z,1316.00
2018-04-23T11:04:58.969Z,1228.00
2018-04-23T11:05:58.850Z,1204.00
2018-04-23T11:06:58.764Z,1260.00
2018-04-23T11:07:58.675Z,1380.00
2018-04-23T11:08:58.590Z,1556.00
2018-04-23T11:09:58.535Z,1788.00
2018-04-23T11:10:59.235Z,2036.00
2018-04-23T11:11:58.320Z,2268.00
2018-04-23T11:12:58.232Z,2520.00
2018-04-23T11:13:58.154Z,2752.00
2018-04-23T11:14:58.087Z,2984.00
2018-04-23T11:15:57.968Z,3284.00
2018-04-23T11:16:57.880Z,3436.00
2018-04-23T11:17:57.801Z,3492.00
2018-04-23T11:18:57.704Z,3368.00
2018-04-23T11:19:57.646Z,3164.00
2018-04-23T11:20:57.527Z,2972.00
2018-04-23T11:21:57.439Z,2808.00
2018-04-23T11:22:57.352Z,2824.00
2018-04-23T11:23:57.259Z,3024.00
2018-04-23T11:24:57.206Z,3524.00
2018-04-23T11:25:57.085Z,4220.00
2018-04-23T11:26:56.996Z,4480.00
2018-04-23T11:27:56.908Z,4688.00
2018-04-23T11:28:56.820Z,4736.00
2018-04-23T11:29:56.758Z,4708.00
2018-04-23T11:30:56.644Z,5160.00
2018-04-23T11:31:56.553Z,6292.00
2018-04-23T11:32:56.464Z,7964.00
2018-04-23T11:33:56.380Z,9592.00
2018-04-23T11:34:56.322Z,11944.00
2018-04-23T11:35:56.198Z,13688.00
2018-04-23T11:36:56.112Z,14308.00
2018-04-23T11:37:56.023Z,13944.00
2018-04-23T11:38:55.949Z,13628.00
2018-04-23T11:39:55.882Z,14904.00
2018-04-23T11:40:55.760Z,16016.00
2018-04-23T11:41:55.759Z,16040.00
2018-04-23T11:42:55.588Z,15744.00
2018-04-23T11:43:55.496Z,15444.00
2018-04-23T11:44:55.436Z,15184.00
2018-04-23T11:45:55.316Z,14512.00
2018-04-23T11:46:55.231Z,14604.00
2018-04-23T11:47:55.142Z,15044.00
2018-04-23T11:48:55.147Z,15324.00
2018-04-23T11:49:55.010Z,15556.00
2018-04-23T11:50:54.883Z,15516.00
2018-04-23T11:51:54.789Z,15068.00
2018-04-23T11:52:54.702Z,14464.00
2018-04-23T11:53:54.615Z,13796.00
2018-04-23T11:54:54.556Z,13024.00
2018-04-23T11:55:54.533Z,12196.00
2018-04-23T11:56:54.352Z,11348.00
2018-04-23T11:57:54.269Z,10592.00
2018-04-23T11:58:54.174Z,10060.00
2018-04-23T11:59:54.120Z,9720.00
2018-04-23T12:00:54.002Z,9496.00
2018-04-23T12:01:53.913Z,9352.00
2018-04-23T12:02:53.921Z,9176.00
2018-04-23T12:03:53.739Z,8952.00
2018-04-23T12:04:53.694Z,8656.00
2018-04-23T12:05:53.563Z,8428.00
2018-04-23T12:06:53.476Z,8336.00
2018-04-23T12:07:53.388Z,8456.00
2018-04-23T12:08:53.303Z,8652.00
2018-04-23T12:09:53.341Z,8680.00
2018-04-23T12:10:53.164Z,8560.00
2018-04-23T12:11:53.041Z,8344.00
2018-04-23T12:12:52.952Z,8104.00
2018-04-23T12:13:52.866Z,7912.00
2018-04-23T12:14:52.779Z,7784.00
2018-04-23T12:15:52.722Z,7628.00
2018-04-23T12:16:52.698Z,7480.00
2018-04-23T12:17:52.513Z,7316.00
2018-04-23T12:18:52.430Z,7360.00
2018-04-23T12:19:52.346Z,7584.00